createdAt,value
2023-04-15T00:01:32.898Z,3.07
2023-04-15T00:04:03.167Z,3.83
2023-04-15T00:06:33.518Z,2.93
2023-04-15T00:09:03.986Z,3.00
2023-04-15T00:11:36.861Z,3.37
2023-04-15T00:14:07.597Z,3.70
2023-04-15T00:16:37.869Z,3.93
2023-04-15T00:19:08.515Z,3.53
2023-04-15T00:21:38.864Z,3.97
2023-04-15T00:24:09.225Z,3.93
2023-04-15T00:26:42.625Z,3.60
2023-04-15T00:29:15.017Z,4.00
2023-04-15T00:31:47.577Z,3.93
2023-04-15T00:34:17.779Z,3.70
2023-04-15T00:36:48.025Z,3.57
2023-04-15T00:39:19.115Z,3.40
2023-04-15T00:41:52.331Z,3.30
2023-04-15T00:44:22.618Z,3.00
2023-04-15T00:46:55.003Z,2.93
2023-04-15T00:49:25.667Z,2.93
2023-04-15T00:51:55.961Z,2.77
2023-04-15T00:54:26.738Z,2.80
2023-04-15T00:57:01.898Z,2.73
2023-04-15T00:59:35.786Z,3.13
2023-04-15T01:02:07.223Z,2.90
2023-04-15T01:04:41.112Z,3.20
2023-04-15T01:07:11.426Z,2.63
2023-04-15T01:09:41.826Z,3.13
2023-04-15T01:12:18.350Z,3.07
2023-04-15T01:14:48.591Z,3.40
2023-04-15T01:17:19.278Z,3.10
2023-04-15T01:19:49.650Z,3.23
2023-04-15T01:22:21.245Z,3.33
2023-04-15T01:25:00.982Z,3.10
2023-04-15T01:27:33.878Z,3.40
2023-04-15T01:30:07.649Z,3.70
2023-04-15T01:32:37.902Z,3.63
2023-04-15T01:35:09.328Z,3.33
2023-04-15T01:37:41.254Z,3.87
2023-04-15T01:40:14.008Z,3.50
2023-04-15T01:42:46.838Z,3.30
2023-04-15T01:45:22.064Z,2.83
2023-04-15T01:47:52.365Z,2.93
2023-04-15T01:50:23.543Z,3.17
2023-04-15T03:14:07.910Z,3.10
2023-04-15T04:05:32.480Z,2.30
2023-04-15T04:29:43.412Z,2.37
2023-04-15T11:20:35.083Z,3.03
2023-04-15T11:23:14.677Z,4.10
2023-04-15T11:25:46.798Z,8.32
2023-04-15T11:28:17.416Z,6.63
2023-04-15T11:30:48.438Z,6.18
2023-04-15T12:37:52.844Z,4.13
2023-04-15T12:45:49.086Z,5.45
2023-04-15T12:48:21.078Z,4.40
2023-04-15T12:50:51.593Z,4.32
2023-04-15T12:53:24.545Z,4.65
2023-04-15T12:55:54.928Z,4.45
2023-04-15T12:58:25.245Z,4.10
2023-04-15T13:00:55.497Z,4.40
2023-04-15T13:03:27.277Z,3.67
2023-04-15T13:05:57.967Z,4.00
2023-04-15T13:08:30.873Z,3.70
2023-04-15T13:11:01.716Z,3.95
2023-04-15T13:13:32.299Z,3.55
2023-04-15T13:16:02.763Z,3.50
2023-04-15T13:18:35.433Z,3.22
2023-04-15T13:21:07.720Z,3.50
2023-04-15T13:23:40.749Z,4.80
2023-04-15T13:26:11.174Z,4.22
2023-04-15T13:28:41.554Z,5.00
2023-04-15T13:31:11.932Z,5.50
2023-04-15T13:33:42.206Z,7.30
2023-04-15T13:36:15.635Z,5.70
2023-04-15T13:38:51.148Z,5.15
2023-04-15T13:41:22.886Z,5.88
2023-04-15T13:43:55.617Z,6.25
2023-04-15T13:46:26.263Z,8.48
2023-04-15T13:48:57.109Z,5.13
2023-04-15T13:51:27.358Z,4.10
2023-04-15T13:54:00.152Z,4.60
2023-04-15T13:56:32.397Z,5.25
2023-04-15T13:59:15.756Z,6.60
2023-04-15T14:01:46.153Z,9.07
2023-04-15T14:04:19.925Z,10.05
2023-04-15T14:06:51.095Z,10.93
2023-04-15T14:09:26.166Z,10.93
2023-04-15T14:11:59.156Z,10.25
2023-04-15T14:14:29.382Z,10.70
2023-04-15T14:17:00.296Z,9.68
2023-04-15T14:19:32.821Z,9.43
2023-04-15T14:22:03.628Z,10.30
2023-04-15T14:24:36.413Z,10.87
2023-04-15T14:27:08.733Z,10.55
2023-04-15T14:29:43.485Z,9.75
2023-04-15T14:32:16.834Z,11.77
2023-04-15T14:34:47.938Z,9.85
2023-04-15T14:37:18.264Z,12.20
2023-04-15T14:39:51.008Z,9.70
2023-04-15T14:42:21.444Z,13.75
2023-04-15T14:44:51.630Z,12.98
2023-04-15T14:47:21.905Z,12.68
2023-04-15T14:49:54.712Z,14.93
2023-04-15T14:52:24.931Z,13.10
2023-04-15T14:54:57.703Z,13.45
2023-04-15T14:57:27.893Z,14.10
2023-04-15T14:59:58.076Z,14.27
2023-04-15T15:02:38.256Z,16.57
2023-04-15T15:05:12.794Z,13.73
2023-04-15T15:07:43.656Z,12.50
2023-04-15T15:10:16.681Z,15.03
2023-04-15T15:13:03.149Z,10.13
2023-04-15T15:15:33.400Z,10.95
2023-04-15T15:18:05.033Z,7.00
2023-04-15T15:20:36.258Z,6.35
2023-04-15T15:23:06.632Z,8.70
2023-04-15T15:25:39.571Z,10.35
2023-04-15T15:28:10.897Z,8.90
2023-04-15T15:30:41.178Z,10.43
2023-04-15T15:33:11.404Z,11.68
2023-04-15T15:35:49.744Z,7.57
2023-04-15T15:38:20.740Z,8.32
2023-04-15T15:40:55.175Z,3.10
2023-04-15T15:43:28.037Z,4.27
2023-04-15T15:45:58.713Z,5.63
2023-04-15T15:48:29.413Z,4.63
2023-04-15T15:50:59.584Z,4.90
2023-04-15T15:53:29.858Z,4.25
2023-04-15T15:56:03.894Z,3.67
2023-04-15T15:58:34.422Z,4.20
2023-04-15T16:01:04.858Z,4.50
2023-04-15T16:03:35.430Z,7.63
2023-04-15T16:06:07.167Z,22.53
2023-04-15T16:08:37.549Z,13.60
2023-04-15T16:11:12.652Z,12.90
2023-04-15T16:13:43.014Z,4.70
2023-04-15T16:16:13.230Z,7.43
2023-04-15T16:18:45.588Z,11.27
2023-04-15T16:21:16.567Z,5.75
2023-04-15T16:23:46.977Z,6.13
2023-04-15T16:26:22.401Z,7.10
2023-04-15T16:28:53.952Z,8.33
2023-04-15T16:31:24.323Z,6.13
2023-04-15T16:33:54.559Z,6.17
2023-04-15T16:36:24.790Z,6.03
2023-04-15T16:38:54.994Z,9.67
2023-04-15T16:41:27.840Z,5.10
2023-04-15T16:46:39.606Z,3.53
2023-04-15T17:59:56.092Z,5.37
2023-04-15T18:02:26.390Z,6.10
2023-04-15T18:04:56.972Z,6.40
2023-04-15T18:07:27.213Z,4.83
2023-04-15T18:09:58.259Z,6.30
2023-04-15T18:12:28.439Z,4.97
2023-04-15T18:15:01.481Z,4.90
2023-04-15T18:17:34.490Z,3.83
2023-04-15T18:20:04.814Z,4.57
2023-04-15T18:22:35.112Z,4.20
2023-04-15T18:25:08.177Z,3.77
2023-04-15T18:27:39.813Z,3.70
2023-04-15T18:30:16.955Z,3.47
2023-04-15T18:32:49.777Z,3.53
2023-04-15T18:35:21.332Z,3.53
2023-04-15T18:37:51.541Z,3.50
2023-04-15T18:40:22.000Z,3.83
2023-04-15T18:42:52.685Z,3.50
2023-04-15T18:45:25.597Z,3.53
2023-04-15T18:47:56.013Z,4.20
2023-04-15T18:50:28.830Z,3.87
2023-04-15T18:52:59.010Z,3.10
2023-04-15T18:55:29.558Z,3.60
2023-04-15T21:49:07.572Z,4.83
2023-04-15T23:34:36.813Z,13.53
